Portada
METAR-TAF:

METAR-TAF

Aeroports :

Base aèria

Tafraoui, Algèria

latitud: 35-32-33N, longitud: 000-31-56W, altitud: 112 m

Observació

L'informe es va fer fa 1 hora i 12 minuts, a les 15:00 UTC
Vent 22 kt del Oest
Temperatura 19°C
Humitat 60%
Pressió 1020 hPa
Visibilitat 10 km o més
Núvols disperses a una alçada de 2600 ft

METAR: DAOL 261500Z 26022KT 9999 SCT026 19/11 Q1020

Hora: 17:12 (16:12 UTC)


TAF: manca

Observacions i pronòstics meteorològics de més de 4000 aeroports (METAR i TAF).

Les estacions disponibles són els punts grocs i vermells al mapa.

Posi el ratolí al punt desitjat per veure el nom de l'estació.

Feu clic per veure les observacions i els pronòstics meteorològics.

Per canviar el mapa: feu clic els botons verds amb una creu de color negre per apropar; al botó verd amb un guió per allunyar la imatge; o en les fletxes verdes per a mapes adjacents.


METAR-TAF: